createdAt,value
2023-04-19T00:02:22.871Z,74.28
2023-04-19T00:04:50.474Z,74.41
2023-04-19T00:07:20.293Z,74.26
2023-04-19T00:09:47.847Z,74.13
2023-04-19T00:12:15.375Z,74.89
2023-04-19T00:14:42.841Z,74.74
2023-04-19T00:17:11.519Z,74.84
2023-04-19T00:19:39.154Z,74.74
2023-04-19T00:22:06.648Z,74.24
2023-04-19T00:24:35.952Z,75.71
2023-04-19T00:27:03.801Z,74.79
2023-04-19T00:29:32.071Z,75.11
2023-04-19T00:31:59.593Z,74.92
2023-04-19T00:34:27.052Z,75.10
2023-04-19T00:36:54.506Z,75.74
2023-04-19T00:39:21.944Z,75.23
2023-04-19T00:41:50.810Z,75.30
2023-04-19T00:44:18.256Z,75.53
2023-04-19T00:46:46.073Z,75.26
2023-04-19T00:49:13.814Z,75.52
2023-04-19T00:51:41.368Z,75.33
2023-04-19T00:54:09.391Z,75.54
2023-04-19T00:56:36.899Z,75.65
2023-04-19T00:59:05.961Z,75.34
2023-04-19T01:01:33.869Z,76.46
2023-04-19T01:04:02.041Z,75.51
2023-04-19T01:06:31.502Z,77.02
2023-04-19T01:08:59.046Z,76.13
2023-04-19T01:11:27.122Z,76.85
2023-04-19T01:13:54.604Z,75.89
2023-04-19T01:16:23.539Z,76.22
2023-04-19T01:18:51.572Z,76.51
2023-04-19T01:21:19.063Z,76.16
2023-04-19T01:23:47.851Z,75.67
2023-04-19T01:26:16.125Z,76.11
2023-04-19T01:28:43.598Z,75.88
2023-04-19T01:31:11.171Z,76.95
2023-04-19T01:33:38.796Z,76.24
2023-04-19T01:36:07.049Z,76.54
2023-04-19T01:38:35.051Z,76.48
2023-04-19T01:41:03.855Z,76.90
2023-04-19T01:43:31.320Z,76.78
2023-04-19T01:45:58.735Z,77.07
2023-04-19T01:48:26.682Z,76.39
2023-04-19T01:50:54.182Z,76.60
2023-04-19T01:53:21.720Z,77.00
2023-04-19T01:55:49.174Z,77.25
2023-04-19T01:58:17.981Z,77.28
2023-04-19T02:00:46.114Z,77.24
2023-04-19T02:03:13.787Z,77.53
2023-04-19T02:05:41.407Z,77.29
2023-04-19T02:08:08.919Z,78.05
2023-04-19T02:10:36.485Z,77.14
2023-04-19T02:13:03.943Z,77.46
2023-04-19T02:15:32.754Z,77.81
2023-04-19T02:18:01.059Z,77.73
2023-04-19T02:20:28.671Z,77.91
2023-04-19T02:22:56.342Z,78.19
2023-04-19T02:25:23.802Z,78.24
2023-04-19T02:27:51.372Z,77.29
2023-04-19T02:30:19.309Z,78.28
2023-04-19T02:32:49.933Z,77.31
2023-04-19T02:35:17.615Z,78.01
2023-04-19T02:37:45.564Z,78.02
2023-04-19T02:40:13.088Z,78.12
2023-04-19T02:42:40.583Z,77.52
2023-04-19T02:45:09.657Z,77.49
2023-04-19T02:47:37.185Z,78.14
2023-04-19T02:50:07.343Z,77.87
2023-04-19T02:52:34.925Z,78.77
2023-04-19T02:55:02.366Z,78.83
2023-04-19T02:57:29.821Z,78.45
2023-04-19T02:59:57.298Z,78.98
2023-04-19T03:02:24.872Z,79.31
2023-04-19T03:04:52.941Z,78.84
2023-04-19T03:07:21.929Z,78.94
2023-04-19T03:09:49.396Z,79.17
2023-04-19T03:12:16.909Z,79.35
2023-04-19T03:14:44.415Z,80.28
2023-04-19T03:17:11.922Z,80.29
2023-04-19T03:19:39.691Z,79.73
2023-04-19T03:22:07.136Z,78.96
2023-04-19T03:24:37.770Z,79.76
2023-04-19T03:27:05.632Z,79.38
2023-04-19T03:29:33.154Z,80.02
2023-04-19T03:32:01.622Z,79.67
2023-04-19T03:34:29.108Z,79.98
2023-04-19T03:36:56.792Z,80.31
2023-04-19T03:39:24.274Z,80.43
2023-04-19T03:41:53.044Z,80.39
2023-04-19T03:44:20.526Z,80.44
2023-04-19T03:46:48.715Z,80.67
2023-04-19T03:49:16.288Z,81.08
2023-04-19T03:51:43.778Z,80.57
2023-04-19T03:54:11.268Z,80.91
2023-04-19T03:56:38.746Z,80.71
2023-04-19T03:59:07.591Z,81.42
2023-04-19T04:01:35.104Z,80.92
2023-04-19T04:04:04.803Z,81.44
2023-04-19T04:06:32.630Z,82.26
2023-04-19T04:09:00.404Z,81.54
2023-04-19T04:11:27.888Z,82.38
2023-04-19T04:13:56.458Z,81.97
2023-04-19T04:16:25.388Z,82.10
2023-04-19T04:18:52.921Z,82.73
2023-04-19T04:21:20.446Z,82.50
2023-04-19T04:23:49.870Z,82.57
2023-04-19T04:26:17.434Z,82.93
2023-04-19T04:28:44.920Z,82.60
2023-04-19T04:31:13.268Z,82.68
2023-04-19T04:33:42.430Z,82.63
2023-04-19T04:36:11.930Z,82.36
2023-04-19T04:38:39.422Z,82.87
2023-04-19T04:41:07.032Z,82.84
2023-04-19T04:43:35.017Z,82.38
2023-04-19T04:46:02.561Z,82.24
2023-04-19T04:48:31.292Z,82.30
2023-04-19T04:51:00.083Z,82.64
2023-04-19T04:53:28.406Z,82.04
2023-04-19T04:55:55.894Z,82.79
2023-04-19T04:58:23.344Z,82.21
2023-04-19T05:00:51.273Z,81.53
2023-04-19T05:03:19.946Z,81.58
2023-04-19T05:05:47.433Z,81.99
2023-04-19T05:08:16.284Z,81.54
2023-04-19T05:10:43.744Z,82.44
2023-04-19T05:13:12.002Z,82.28
2023-04-19T05:15:39.673Z,81.20
2023-04-19T05:18:07.505Z,81.01
2023-04-19T05:20:34.980Z,81.25
2023-04-19T05:23:03.364Z,81.30
2023-04-19T05:25:32.218Z,80.78
2023-04-19T05:27:59.696Z,79.61
2023-04-19T05:30:27.267Z,79.82
2023-04-19T05:32:54.897Z,79.34
2023-04-19T05:35:22.575Z,79.91
2023-04-19T05:37:50.154Z,79.24
2023-04-19T05:40:17.847Z,79.81
2023-04-19T05:42:46.674Z,79.47
2023-04-19T05:45:15.594Z,78.42
2023-04-19T05:47:43.340Z,79.00
2023-04-19T05:50:11.257Z,78.97
2023-04-19T05:52:38.770Z,77.95
2023-04-19T05:55:06.759Z,78.32
2023-04-19T05:57:34.330Z,77.55
2023-04-19T06:00:03.341Z,77.03
2023-04-19T06:02:31.048Z,77.79
2023-04-19T06:05:02.517Z,76.82
2023-04-19T06:07:34.380Z,76.85
2023-04-19T06:10:06.216Z,76.55
2023-04-19T06:12:33.682Z,76.27
2023-04-19T06:15:01.197Z,75.94
2023-04-19T06:17:30.090Z,75.73
2023-04-19T06:19:57.570Z,75.80
2023-04-19T06:22:25.057Z,75.42
2023-04-19T06:24:52.532Z,74.49
2023-04-19T06:27:20.006Z,74.92
2023-04-19T06:29:48.451Z,74.22
2023-04-19T06:32:16.765Z,73.94
2023-04-19T06:34:45.714Z,73.91
2023-04-19T06:37:13.193Z,74.00
2023-04-19T06:39:40.662Z,73.83
2023-04-19T06:42:08.172Z,73.53
2023-04-19T06:44:35.667Z,72.99
2023-04-19T06:47:03.125Z,72.33
2023-04-19T06:49:30.585Z,72.30
2023-04-19T06:51:59.451Z,71.86
2023-04-19T06:54:26.921Z,72.69
2023-04-19T06:56:54.408Z,71.51
2023-04-19T06:59:22.161Z,71.78
2023-04-19T07:01:49.879Z,71.88
2023-04-19T07:04:18.473Z,71.78
2023-04-19T07:06:49.437Z,70.85
2023-04-19T07:09:18.481Z,70.75
2023-04-19T07:11:47.758Z,70.69
2023-04-19T07:14:15.660Z,71.04
2023-04-19T07:16:43.477Z,69.87
2023-04-19T07:19:10.947Z,69.97
2023-04-19T07:21:39.471Z,69.92
2023-04-19T07:24:07.570Z,69.94
2023-04-19T07:26:36.484Z,69.40
2023-04-19T07:29:04.197Z,68.87
2023-04-19T07:31:32.027Z,69.48
2023-04-19T07:33:59.725Z,68.48
2023-04-19T07:36:27.732Z,68.79
2023-04-19T07:38:55.336Z,67.79
2023-04-19T07:41:23.546Z,67.27
2023-04-19T07:43:52.343Z,67.73
2023-04-19T07:46:20.042Z,67.34
2023-04-19T07:48:47.508Z,66.31
2023-04-19T07:51:17.249Z,67.26
2023-04-19T07:53:45.018Z,66.11
2023-04-19T07:56:13.208Z,65.83
2023-04-19T07:58:41.276Z,65.91
2023-04-19T08:01:10.347Z,65.79
2023-04-19T08:03:38.276Z,66.37
2023-04-19T08:06:08.117Z,65.12
2023-04-19T08:08:35.726Z,65.19
2023-04-19T08:11:03.562Z,64.88
2023-04-19T08:13:31.537Z,64.74
2023-04-19T08:18:32.299Z,63.86
2023-04-19T08:20:59.822Z,63.34
2023-04-19T08:23:37.780Z,63.42
2023-04-19T08:26:12.708Z,63.46
2023-04-19T08:28:40.205Z,63.32
2023-04-19T08:31:08.213Z,63.43
2023-04-19T08:33:37.031Z,62.86
2023-04-19T08:36:04.993Z,62.53
2023-04-19T08:38:32.535Z,62.06
2023-04-19T08:41:00.050Z,62.20
2023-04-19T08:43:33.365Z,62.54
2023-04-19T08:46:00.999Z,61.73
2023-04-19T08:48:28.919Z,61.49
2023-04-19T08:51:05.153Z,61.58
2023-04-19T08:53:34.774Z,61.72
2023-04-19T09:01:05.265Z,60.35
2023-04-19T09:03:40.861Z,59.84
2023-04-19T09:06:17.080Z,60.01
2023-04-19T09:08:44.958Z,60.29
2023-04-19T09:11:12.488Z,60.47
2023-04-19T09:13:42.045Z,59.64
2023-04-19T09:16:24.535Z,60.55
2023-04-19T09:19:05.489Z,59.53
2023-04-19T09:21:37.381Z,59.84
2023-04-19T09:24:05.304Z,60.74
2023-04-19T09:26:33.678Z,59.93
2023-04-19T09:29:02.845Z,60.46
2023-04-19T09:31:48.008Z,59.67
2023-04-19T09:34:19.542Z,59.74
2023-04-19T09:36:54.483Z,60.20
2023-04-19T09:39:32.359Z,59.69
2023-04-19T09:42:00.282Z,59.08
2023-04-19T09:46:58.877Z,58.20
2023-04-19T09:49:45.645Z,58.38
2023-04-19T09:52:16.416Z,58.42
2023-04-19T09:54:44.006Z,58.35
2023-04-19T09:57:11.551Z,56.84
2023-04-19T09:59:39.021Z,57.22
2023-04-19T10:02:07.143Z,56.69
2023-04-19T10:04:54.704Z,56.14
2023-04-19T10:07:31.019Z,56.54
2023-04-19T10:12:52.362Z,54.68
2023-04-19T10:15:21.651Z,54.59
2023-04-19T10:17:49.195Z,55.25
2023-04-19T10:20:21.879Z,55.02
2023-04-19T10:22:51.237Z,55.65
2023-04-19T10:25:18.883Z,54.54
2023-04-19T10:27:48.745Z,51.53
2023-04-19T10:30:20.340Z,51.60
2023-04-19T10:32:53.457Z,52.15
2023-04-19T10:35:22.082Z,51.02
2023-04-19T10:38:11.936Z,50.57
2023-04-19T10:41:00.538Z,49.46
2023-04-19T10:43:29.258Z,49.63
2023-04-19T10:46:00.844Z,49.45
2023-04-19T10:48:39.392Z,50.42
2023-04-19T10:51:14.452Z,50.05
2023-04-19T10:53:56.848Z,50.34
2023-04-19T10:56:58.797Z,49.66
2023-04-19T10:59:26.297Z,49.42
2023-04-19T11:01:58.188Z,49.35
2023-04-19T11:05:00.433Z,49.79
2023-04-19T11:07:27.951Z,50.13
2023-04-19T11:09:56.751Z,49.25
2023-04-19T11:12:24.214Z,49.21
2023-04-19T11:14:53.432Z,48.76
2023-04-19T11:17:25.633Z,48.33
2023-04-19T11:19:57.803Z,47.69
2023-04-19T11:22:32.799Z,44.97
2023-04-19T11:25:08.219Z,44.46
2023-04-19T11:27:35.848Z,45.57
2023-04-19T11:30:05.385Z,45.69
2023-04-19T11:32:33.326Z,46.76
2023-04-19T11:35:07.485Z,46.73
2023-04-19T11:37:36.470Z,47.93
2023-04-19T11:40:05.669Z,46.03
2023-04-19T11:42:34.716Z,46.23
2023-04-19T11:45:02.430Z,46.07
2023-04-19T11:47:29.976Z,45.33
2023-04-19T11:49:57.430Z,42.34
2023-04-19T11:52:25.846Z,42.40
2023-04-19T11:54:53.802Z,40.61
2023-04-19T11:57:29.437Z,41.04
2023-04-19T12:00:08.215Z,40.65
2023-04-19T12:02:39.140Z,40.90
2023-04-19T12:05:11.587Z,40.45
2023-04-19T12:07:39.947Z,38.67
2023-04-19T12:10:11.471Z,38.58
2023-04-19T12:12:39.184Z,38.94
2023-04-19T12:15:09.298Z,38.78
2023-04-19T12:17:57.618Z,38.81
2023-04-19T12:20:32.716Z,39.08
2023-04-19T12:23:00.411Z,38.43
2023-04-19T12:25:31.473Z,38.08
2023-04-19T12:27:59.358Z,38.02
2023-04-19T12:30:28.473Z,36.14
2023-04-19T12:32:56.329Z,36.35
2023-04-19T12:35:25.449Z,36.52
2023-04-19T12:37:53.351Z,36.12
2023-04-19T12:40:21.098Z,35.75
2023-04-19T12:42:48.758Z,35.81
2023-04-19T12:45:16.576Z,35.41
2023-04-19T12:47:47.092Z,34.67
2023-04-19T12:50:16.001Z,34.88
2023-04-19T12:52:43.968Z,34.46
2023-04-19T12:55:11.573Z,34.68
2023-04-19T12:57:39.206Z,34.59
2023-04-19T13:00:10.036Z,34.38
2023-04-19T13:02:37.831Z,34.48
2023-04-19T13:05:07.659Z,34.64
2023-04-19T13:07:35.615Z,33.67
2023-04-19T13:10:03.487Z,33.65
2023-04-19T13:12:30.945Z,32.99
2023-04-19T13:14:58.517Z,33.04
2023-04-19T13:17:26.213Z,32.97
2023-04-19T13:19:53.774Z,32.65
2023-04-19T13:22:22.592Z,33.15
2023-04-19T13:24:50.088Z,32.82
2023-04-19T13:27:17.594Z,32.51
2023-04-19T13:29:45.677Z,32.41
2023-04-19T13:32:13.172Z,32.21
2023-04-19T13:34:41.055Z,32.14
2023-04-19T13:37:08.611Z,32.07
2023-04-19T13:39:37.886Z,31.54
2023-04-19T13:42:05.631Z,31.81
2023-04-19T13:44:33.244Z,31.65
2023-04-19T13:47:01.492Z,31.93
2023-04-19T13:49:28.998Z,30.84
2023-04-19T13:51:56.461Z,28.09
2023-04-19T13:54:23.950Z,28.59
2023-04-19T13:56:52.734Z,26.96
2023-04-19T13:59:20.771Z,25.28
2023-04-19T14:01:48.311Z,25.99
2023-04-19T14:04:16.155Z,25.81
2023-04-19T14:06:44.132Z,26.53
2023-04-19T14:09:11.581Z,26.92
2023-04-19T14:11:39.098Z,27.62
2023-04-19T14:14:07.950Z,28.35
2023-04-19T14:16:35.439Z,27.96
2023-04-19T14:19:03.643Z,29.06
2023-04-19T14:21:31.415Z,28.66
2023-04-19T14:23:59.096Z,29.19
2023-04-19T14:26:27.723Z,29.64
2023-04-19T14:28:55.378Z,29.93
2023-04-19T14:31:24.182Z,28.85
2023-04-19T14:33:52.111Z,28.95
2023-04-19T14:36:19.640Z,29.84
2023-04-19T14:38:47.106Z,28.82
2023-04-19T14:41:14.574Z,28.66
2023-04-19T14:43:42.241Z,28.89
2023-04-19T14:46:09.748Z,28.40
2023-04-19T14:48:38.941Z,28.59
2023-04-19T14:51:06.773Z,28.48
2023-04-19T14:53:34.298Z,29.01
2023-04-19T14:56:07.857Z,29.08
2023-04-19T14:58:35.427Z,29.39
2023-04-19T15:01:11.858Z,29.90
2023-04-19T15:03:41.059Z,29.09
2023-04-19T15:06:09.058Z,29.84
2023-04-19T15:08:36.534Z,29.80
2023-04-19T15:11:04.052Z,30.25
2023-04-19T15:13:31.756Z,30.56
2023-04-19T15:16:07.822Z,30.24
2023-04-19T15:18:35.509Z,30.29
2023-04-19T15:21:05.452Z,30.71
2023-04-19T15:23:32.963Z,30.89
2023-04-19T15:26:00.427Z,30.49
2023-04-19T15:28:27.992Z,30.32
2023-04-19T15:30:59.477Z,31.17
2023-04-19T15:33:26.991Z,30.78
2023-04-19T15:35:55.678Z,30.76
2023-04-19T15:38:26.220Z,31.18
2023-04-19T15:40:53.798Z,30.65
2023-04-19T15:43:21.365Z,31.19
2023-04-19T15:45:48.863Z,30.72
2023-04-19T15:48:16.384Z,31.58
2023-04-19T15:50:44.287Z,31.40
2023-04-19T15:53:11.850Z,31.93
2023-04-19T15:55:41.336Z,31.82
2023-04-19T15:58:08.848Z,32.58
2023-04-19T16:00:36.398Z,32.63
2023-04-19T16:03:04.109Z,33.05
2023-04-19T16:05:31.789Z,33.15
2023-04-19T16:08:03.444Z,32.38
2023-04-19T16:10:31.247Z,32.70
2023-04-19T16:13:00.840Z,33.53
2023-04-19T16:15:28.838Z,32.57
2023-04-19T16:17:56.386Z,32.95
2023-04-19T16:20:24.025Z,33.18
2023-04-19T16:22:51.504Z,33.93
2023-04-19T16:25:18.981Z,33.16
2023-04-19T16:27:47.256Z,32.82
2023-04-19T16:30:17.341Z,33.69
2023-04-19T16:32:44.952Z,33.25
2023-04-19T16:35:12.555Z,33.31
2023-04-19T16:37:40.107Z,33.74
2023-04-19T16:40:09.362Z,33.71
2023-04-19T16:42:37.521Z,33.12
2023-04-19T16:45:06.444Z,33.52
2023-04-19T16:47:36.429Z,34.28
2023-04-19T16:50:06.089Z,33.37
2023-04-19T16:52:34.966Z,33.96
2023-04-19T16:55:03.757Z,33.67
2023-04-19T16:57:31.916Z,33.89
2023-04-19T16:59:59.533Z,34.98
2023-04-19T17:02:27.282Z,34.24
2023-04-19T17:04:57.026Z,34.45
2023-04-19T17:07:24.780Z,34.06
2023-04-19T17:09:52.365Z,34.00
2023-04-19T17:12:19.813Z,33.71
2023-04-19T17:14:47.452Z,33.27
2023-04-19T17:17:14.900Z,34.27
2023-04-19T17:19:42.395Z,34.06
2023-04-19T17:22:11.307Z,33.65
2023-04-19T17:24:39.153Z,34.13
2023-04-19T17:27:06.731Z,34.42
2023-04-19T17:29:34.216Z,35.23
2023-04-19T17:32:01.824Z,34.76
2023-04-19T17:34:29.403Z,34.71
2023-04-19T17:36:56.844Z,35.05
2023-04-19T17:39:27.846Z,34.19
2023-04-19T17:41:55.776Z,35.27
2023-04-19T17:44:23.298Z,34.31
2023-04-19T17:46:50.848Z,33.90
2023-04-19T17:49:20.096Z,34.50
2023-04-19T17:51:48.169Z,34.11
2023-04-19T17:54:16.364Z,34.00
2023-04-19T17:56:45.303Z,34.49
2023-04-19T17:59:12.767Z,34.31
2023-04-19T18:01:40.888Z,34.19
2023-04-19T18:04:08.669Z,34.70
2023-04-19T18:06:36.257Z,34.98
2023-04-19T18:09:03.827Z,34.42
2023-04-19T18:11:31.329Z,35.52
2023-04-19T18:14:00.265Z,35.15
2023-04-19T18:16:27.740Z,34.60
2023-04-19T18:18:55.205Z,34.60
2023-04-19T18:21:22.702Z,35.60
2023-04-19T18:23:51.917Z,34.41
2023-04-19T18:26:19.407Z,33.95
2023-04-19T18:28:46.909Z,34.85
2023-04-19T18:31:15.727Z,34.76
2023-04-19T18:33:43.207Z,34.81
2023-04-19T18:36:11.060Z,34.67
2023-04-19T18:38:38.523Z,35.31
2023-04-19T18:41:06.165Z,36.84
2023-04-19T18:43:33.803Z,35.36
2023-04-19T18:46:01.490Z,35.92
2023-04-19T18:48:30.572Z,36.13
2023-04-19T18:50:59.499Z,36.60
2023-04-19T18:53:29.299Z,37.06
2023-04-19T18:55:58.391Z,37.10
2023-04-19T18:58:26.885Z,36.79
2023-04-19T19:00:54.706Z,37.00
2023-04-19T19:05:55.955Z,37.56
2023-04-19T19:08:23.631Z,37.89
2023-04-19T19:13:21.767Z,38.70
2023-04-19T19:15:49.273Z,38.68
2023-04-19T19:18:16.877Z,39.03
2023-04-19T19:20:44.695Z,39.26
2023-04-19T19:23:13.864Z,39.60
2023-04-19T19:25:42.376Z,38.97
2023-04-19T19:28:11.189Z,38.94
2023-04-19T19:30:42.689Z,38.00
2023-04-19T19:33:10.919Z,39.03
2023-04-19T19:35:39.977Z,39.36
2023-04-19T19:38:07.784Z,39.14
2023-04-19T19:40:53.162Z,38.39
2023-04-19T19:43:24.152Z,40.16
2023-04-19T19:45:52.627Z,39.04
2023-04-19T19:48:20.277Z,38.97
2023-04-19T19:51:20.377Z,40.33
2023-04-19T19:53:35.409Z,39.89
2023-04-19T19:56:12.980Z,40.56
2023-04-19T19:58:50.299Z,41.71
2023-04-19T20:01:21.979Z,42.27
2023-04-19T20:03:50.093Z,41.67
2023-04-19T20:07:03.345Z,41.74
2023-04-19T20:09:05.344Z,42.86
2023-04-19T20:11:34.192Z,42.01
2023-04-19T20:14:01.726Z,42.37
2023-04-19T20:16:29.527Z,43.35
2023-04-19T20:18:57.695Z,43.62
2023-04-19T20:21:25.232Z,43.72
2023-04-19T20:23:53.882Z,43.29
2023-04-19T20:26:21.365Z,43.58
2023-04-19T20:28:50.232Z,43.94
2023-04-19T20:31:17.773Z,44.27
2023-04-19T20:33:46.340Z,45.36
2023-04-19T20:36:16.260Z,45.75
2023-04-19T20:38:44.750Z,45.63
2023-04-19T20:41:12.251Z,45.00
2023-04-19T20:43:39.880Z,45.62
2023-04-19T20:46:09.071Z,45.09
2023-04-19T20:48:36.736Z,45.70
2023-04-19T20:51:04.351Z,45.66
2023-04-19T20:53:31.843Z,45.85
2023-04-19T20:55:59.361Z,45.65
2023-04-19T20:58:26.870Z,46.51
2023-04-19T21:00:54.425Z,46.53
2023-04-19T21:03:23.407Z,47.07
2023-04-19T21:05:51.041Z,47.17
2023-04-19T21:08:19.010Z,47.20
2023-04-19T21:10:46.495Z,47.13
2023-04-19T21:13:13.951Z,47.57
2023-04-19T21:15:41.649Z,47.51
2023-04-19T21:18:09.202Z,47.80
2023-04-19T21:20:39.344Z,48.18
2023-04-19T21:23:06.845Z,48.44
2023-04-19T21:25:34.314Z,49.08
2023-04-19T21:28:03.155Z,48.34
2023-04-19T21:30:31.561Z,48.99
2023-04-19T21:32:59.109Z,49.17
2023-04-19T21:35:26.705Z,49.83
2023-04-19T21:37:55.562Z,50.55
2023-04-19T21:40:23.096Z,51.63
2023-04-19T21:42:50.594Z,52.98
2023-04-19T21:45:18.059Z,52.30
2023-04-19T21:47:45.658Z,52.68
2023-04-19T21:50:13.256Z,53.52
2023-04-19T21:52:41.119Z,52.78
2023-04-19T21:55:10.621Z,53.56
2023-04-19T21:57:38.514Z,52.91
2023-04-19T22:00:10.108Z,51.55
2023-04-19T22:02:37.703Z,51.15
2023-04-19T22:05:07.204Z,51.75
2023-04-19T22:07:37.321Z,52.74
2023-04-19T22:10:05.850Z,52.50
2023-04-19T22:12:36.265Z,52.00
2023-04-19T22:15:09.143Z,52.80
2023-04-19T22:17:38.401Z,51.87
2023-04-19T22:20:08.965Z,53.54
2023-04-19T22:22:36.640Z,55.38
2023-04-19T22:25:04.545Z,57.65
2023-04-19T22:27:32.070Z,57.78
2023-04-19T22:30:00.898Z,58.12
2023-04-19T22:32:28.724Z,58.31
2023-04-19T22:34:56.584Z,55.26
2023-04-19T22:37:24.078Z,54.77
2023-04-19T22:39:51.602Z,54.66
2023-04-19T22:42:19.080Z,53.60
2023-04-19T22:44:46.623Z,55.21
2023-04-19T22:47:15.713Z,55.39
2023-04-19T22:49:43.584Z,57.34
2023-04-19T22:52:11.588Z,58.61
2023-04-19T22:54:39.186Z,60.83
2023-04-19T22:57:06.923Z,58.03
2023-04-19T22:59:34.453Z,56.25
2023-04-19T23:02:01.988Z,55.58
2023-04-19T23:04:35.614Z,54.27
2023-04-19T23:07:03.827Z,54.92
2023-04-19T23:09:31.405Z,53.23
2023-04-19T23:12:00.445Z,53.82
2023-04-19T23:14:28.384Z,53.96
2023-04-19T23:16:57.087Z,54.65
2023-04-19T23:19:25.266Z,55.34
2023-04-19T23:21:54.072Z,57.59
2023-04-19T23:24:21.532Z,58.16
2023-04-19T23:26:48.980Z,58.53
2023-04-19T23:29:16.720Z,59.02
2023-04-19T23:31:44.388Z,59.65
2023-04-19T23:34:11.939Z,59.02
2023-04-19T23:36:39.407Z,60.61
2023-04-19T23:39:08.239Z,62.88
2023-04-19T23:41:35.777Z,63.17
2023-04-19T23:44:03.229Z,63.41
2023-04-19T23:46:30.869Z,64.97
2023-04-19T23:48:58.347Z,65.61
2023-04-19T23:51:25.877Z,64.94
2023-04-19T23:53:53.354Z,60.32
2023-04-19T23:56:22.159Z,59.18
2023-04-19T23:58:49.604Z,58.86
